Charbonneau, North Dakota
Current Conditions -  °F | °C
As of 6:52 PM on Saturday 22 Nov 2014 (Local Time) from KISN Reporting Station
Clear Clear  
Wind Chill: 24°   Ceiling: Unl
Heat Index: 31°   Visibility: 10mi
Dew Point: 29°   Wind: 7mph
Humidity: 92%   Direction: 220°SW
Pressure: 29.27"   Gusts: NA
Location:  47.8581°N, 103.643°W
Report Text: KISN 230052Z AUTO 22006KT 10SM CLR M01/M02 A2927 RMK AO2 SLP934 T10061017
Loading
Personal Weather Stations






























Interactive Weather Map New forecast layout! Learn more

10-Day Weather Forecast

Advertisements
Track Severe Weather on mobile